Terminal Aerodrome Forecast
Issued by NWS

Current Version | Previous Version | Graphics & Text | Print | Product List | Glossary On
Versions: 1 2 3 4 5 6 7 8 9 10 11 12 13 14 15 16 17 18
184
FTUS41 KPBZ 281734
TAFHLG
TAF
KHLG 281734Z 2818/2918 33004KT P6SM SCT050 BKN200
     FM282100 24005KT P6SM VCTS BKN040CB
     FM290000 VRB03KT P6SM BKN150=

USA.gov is the U.S. government's official web portal to all federal, state and local government web resources and services.